sensor_id;sensor_type;location;lat;lon;timestamp;pressure;altitude;pressure_sealevel;temperature;humidity
18697;BME280;22617;43.690;27.956;2022-09-25T00:02:11;99272.97;;;8.42;66.84
18697;BME280;22617;43.690;27.956;2022-09-25T00:07:15;99268.53;;;8.30;67.34
18697;BME280;22617;43.690;27.956;2022-09-25T00:12:18;99265.81;;;8.18;67.65
18697;BME280;22617;43.690;27.956;2022-09-25T00:17:24;99273.44;;;8.06;68.13
18697;BME280;22617;43.690;27.956;2022-09-25T00:22:27;99265.72;;;8.11;68.09
18697;BME280;22617;43.690;27.956;2022-09-25T00:27:31;99263.22;;;8.20;67.63
18697;BME280;22617;43.690;27.956;2022-09-25T00:32:36;99267.41;;;8.07;68.04
18697;BME280;22617;43.690;27.956;2022-09-25T00:37:40;99259.56;;;8.00;67.50
18697;BME280;22617;43.690;27.956;2022-09-25T00:42:43;99258.66;;;7.98;67.56
18697;BME280;22617;43.690;27.956;2022-09-25T00:47:55;99251.69;;;7.91;67.85
18697;BME280;22617;43.690;27.956;2022-09-25T00:53:03;99238.84;;;8.07;67.98
18697;BME280;22617;43.690;27.956;2022-09-25T00:58:07;99242.31;;;8.08;68.31
18697;BME280;22617;43.690;27.956;2022-09-25T01:03:13;99230.16;;;8.01;68.21
18697;BME280;22617;43.690;27.956;2022-09-25T01:08:19;99231.00;;;8.00;68.08
18697;BME280;22617;43.690;27.956;2022-09-25T01:13:25;99226.56;;;7.88;68.58
18697;BME280;22617;43.690;27.956;2022-09-25T01:18:48;99222.31;;;7.98;68.76
18697;BME280;22617;43.690;27.956;2022-09-25T01:24:17;99220.59;;;7.97;68.42
18697;BME280;22617;43.690;27.956;2022-09-25T01:29:28;99214.53;;;7.95;68.50
18697;BME280;22617;43.690;27.956;2022-09-25T01:34:42;99213.66;;;7.97;68.66
18697;BME280;22617;43.690;27.956;2022-09-25T01:39:53;99217.91;;;7.87;68.66
18697;BME280;22617;43.690;27.956;2022-09-25T01:45:03;99216.19;;;7.88;69.21
18697;BME280;22617;43.690;27.956;2022-09-25T01:50:12;99216.97;;;7.81;69.47
18697;BME280;22617;43.690;27.956;2022-09-25T01:55:20;99212.66;;;7.83;69.60
18697;BME280;22617;43.690;27.956;2022-09-25T02:00:27;99209.13;;;7.75;69.47
18697;BME280;22617;43.690;27.956;2022-09-25T02:05:33;99204.94;;;7.86;69.42
18697;BME280;22617;43.690;27.956;2022-09-25T02:10:42;99208.38;;;7.86;69.05
18697;BME280;22617;43.690;27.956;2022-09-25T02:15:51;99209.09;;;7.73;68.79
18697;BME280;22617;43.690;27.956;2022-09-25T02:21:01;99204.88;;;7.81;69.84
18697;BME280;22617;43.690;27.956;2022-09-25T02:26:15;99201.41;;;7.82;70.18
18697;BME280;22617;43.690;27.956;2022-09-25T02:31:26;99205.69;;;7.77;69.73
18697;BME280;22617;43.690;27.956;2022-09-25T02:36:32;99206.59;;;7.81;70.16
18697;BME280;22617;43.690;27.956;2022-09-25T02:41:46;99209.09;;;7.72;70.58
18697;BME280;22617;43.690;27.956;2022-09-25T02:47:00;99206.59;;;7.79;70.40
18697;BME280;22617;43.690;27.956;2022-09-25T02:52:11;99210.91;;;7.80;70.09
18697;BME280;22617;43.690;27.956;2022-09-25T02:57:22;99210.03;;;7.80;69.86
18697;BME280;22617;43.690;27.956;2022-09-25T03:02:29;99204.97;;;7.91;70.09
18697;BME280;22617;43.690;27.956;2022-09-25T03:07:34;99217.06;;;7.92;70.04
18697;BME280;22617;43.690;27.956;2022-09-25T03:13:11;99213.41;;;7.73;70.85
18697;BME280;22617;43.690;27.956;2022-09-25T03:18:17;99219.47;;;7.73;71.06
18697;BME280;22617;43.690;27.956;2022-09-25T03:23:21;99216.88;;;7.70;71.50
18697;BME280;22617;43.690;27.956;2022-09-25T03:28:25;99212.59;;;7.75;70.71
18697;BME280;22617;43.690;27.956;2022-09-25T03:33:34;99209.06;;;7.69;70.64
18697;BME280;22617;43.690;27.956;2022-09-25T03:38:38;99211.59;;;7.64;70.59
18697;BME280;22617;43.690;27.956;2022-09-25T03:43:42;99202.94;;;7.64;70.95
18697;BME280;22617;43.690;27.956;2022-09-25T03:48:49;99207.38;;;7.71;70.66
18697;BME280;22617;43.690;27.956;2022-09-25T03:53:53;99216.78;;;7.64;71.08
18697;BME280;22617;43.690;27.956;2022-09-25T03:58:57;99209.94;;;7.69;70.79
18697;BME280;22617;43.690;27.956;2022-09-25T04:04:02;99210.59;;;7.53;70.39
18697;BME280;22617;43.690;27.956;2022-09-25T04:09:05;99214.00;;;7.46;70.84
18697;BME280;22617;43.690;27.956;2022-09-25T04:14:09;99219.28;;;7.55;70.84
18697;BME280;22617;43.690;27.956;2022-09-25T04:19:15;99217.50;;;7.51;70.74
18697;BME280;22617;43.690;27.956;2022-09-25T04:24:18;99219.38;;;7.64;71.03
18697;BME280;22617;43.690;27.956;2022-09-25T04:29:39;99221.25;;;7.76;71.01
18697;BME280;22617;43.690;27.956;2022-09-25T04:34:44;99223.00;;;7.78;71.06
18697;BME280;22617;43.690;27.956;2022-09-25T04:39:48;99213.53;;;7.83;70.82
18697;BME280;22617;43.690;27.956;2022-09-25T04:44:53;99215.25;;;7.80;71.36
18697;BME280;22617;43.690;27.956;2022-09-25T04:49:58;99218.06;;;8.04;72.03
18697;BME280;22617;43.690;27.956;2022-09-25T04:55:04;99213.09;;;8.28;72.26
18697;BME280;22617;43.690;27.956;2022-09-25T05:00:08;99207.34;;;8.61;71.35
18697;BME280;22617;43.690;27.956;2022-09-25T05:05:14;99200.56;;;8.89;71.80
18697;BME280;22617;43.690;27.956;2022-09-25T05:10:19;99199.84;;;9.17;70.55
18697;BME280;22617;43.690;27.956;2022-09-25T05:15:23;99199.16;;;9.53;68.44
18697;BME280;22617;43.690;27.956;2022-09-25T05:20:28;99198.38;;;9.86;67.66
18697;BME280;22617;43.690;27.956;2022-09-25T05:25:32;99188.88;;;10.17;69.15
18697;BME280;22617;43.690;27.956;2022-09-25T05:30:37;99199.28;;;10.66;73.99
18697;BME280;22617;43.690;27.956;2022-09-25T05:35:42;99211.34;;;11.18;76.14
18697;BME280;22617;43.690;27.956;2022-09-25T05:40:46;99212.75;;;11.97;76.49
18697;BME280;22617;43.690;27.956;2022-09-25T05:45:52;99201.94;;;12.45;74.99
18697;BME280;22617;43.690;27.956;2022-09-25T05:50:58;99203.13;;;13.01;72.16
18697;BME280;22617;43.690;27.956;2022-09-25T05:56:02;99207.91;;;13.45;69.94
18697;BME280;22617;43.690;27.956;2022-09-25T06:01:07;99203.97;;;13.79;68.13
18697;BME280;22617;43.690;27.956;2022-09-25T06:06:12;99195.03;;;13.95;68.36
18697;BME280;22617;43.690;27.956;2022-09-25T06:11:15;99197.03;;;14.36;67.42
18697;BME280;22617;43.690;27.956;2022-09-25T06:16:19;99204.19;;;14.77;66.53
18697;BME280;22617;43.690;27.956;2022-09-25T06:21:24;99203.72;;;15.03;64.96
18697;BME280;22617;43.690;27.956;2022-09-25T06:26:27;99214.63;;;15.28;64.75
18697;BME280;22617;43.690;27.956;2022-09-25T06:31:31;99204.25;;;15.66;63.99
18697;BME280;22617;43.690;27.956;2022-09-25T06:36:36;99208.69;;;16.03;64.21
18697;BME280;22617;43.690;27.956;2022-09-25T06:41:39;99207.66;;;16.45;62.64
18697;BME280;22617;43.690;27.956;2022-09-25T06:46:48;99206.81;;;16.80;62.20
18697;BME280;22617;43.690;27.956;2022-09-25T06:51:53;99214.28;;;17.29;59.94
18697;BME280;22617;43.690;27.956;2022-09-25T06:56:56;99210.47;;;17.72;58.93
18697;BME280;22617;43.690;27.956;2022-09-25T07:02:00;99214.91;;;17.99;58.93
18697;BME280;22617;43.690;27.956;2022-09-25T07:07:25;99207.41;;;18.13;56.95
18697;BME280;22617;43.690;27.956;2022-09-25T07:12:28;99216.00;;;18.48;56.12
18697;BME280;22617;43.690;27.956;2022-09-25T07:17:35;99204.34;;;18.81;55.48
18697;BME280;22617;43.690;27.956;2022-09-25T07:22:40;99202.59;;;19.06;54.63
18697;BME280;22617;43.690;27.956;2022-09-25T07:27:43;99205.97;;;19.35;54.99
18697;BME280;22617;43.690;27.956;2022-09-25T07:32:47;99214.19;;;19.52;54.42
18697;BME280;22617;43.690;27.956;2022-09-25T07:37:54;99195.34;;;19.61;54.25
18697;BME280;22617;43.690;27.956;2022-09-25T07:42:59;99196.81;;;19.91;52.77
18697;BME280;22617;43.690;27.956;2022-09-25T07:48:03;99198.13;;;20.03;50.94
18697;BME280;22617;43.690;27.956;2022-09-25T07:53:08;99199.56;;;20.55;48.66
18697;BME280;22617;43.690;27.956;2022-09-25T07:58:13;99201.97;;;20.81;47.44
18697;BME280;22617;43.690;27.956;2022-09-25T08:03:16;99195.50;;;20.88;47.01
18697;BME280;22617;43.690;27.956;2022-09-25T08:08:21;99188.25;;;20.52;46.21
18697;BME280;22617;43.690;27.956;2022-09-25T08:13:25;99192.72;;;20.71;48.08
18697;BME280;22617;43.690;27.956;2022-09-25T08:18:29;99192.06;;;20.86;45.91
18697;BME280;22617;43.690;27.956;2022-09-25T08:23:34;99189.81;;;20.98;47.01
18697;BME280;22617;43.690;27.956;2022-09-25T08:28:38;99188.09;;;20.97;45.93
18697;BME280;22617;43.690;27.956;2022-09-25T08:33:46;99182.41;;;21.65;44.82
18697;BME280;22617;43.690;27.956;2022-09-25T08:38:52;99181.34;;;22.25;43.50
18697;BME280;22617;43.690;27.956;2022-09-25T08:44:02;99166.94;;;22.65;43.96
18697;BME280;22617;43.690;27.956;2022-09-25T08:49:07;99166.41;;;22.93;42.33
18697;BME280;22617;43.690;27.956;2022-09-25T08:54:18;99155.56;;;22.97;41.97
18697;BME280;22617;43.690;27.956;2022-09-25T08:59:25;99145.66;;;23.17;39.91
18697;BME280;22617;43.690;27.956;2022-09-25T09:04:34;99150.34;;;23.29;39.18
18697;BME280;22617;43.690;27.956;2022-09-25T09:09:43;99150.19;;;23.32;38.47
18697;BME280;22617;43.690;27.956;2022-09-25T09:14:52;99127.69;;;23.70;39.21
18697;BME280;22617;43.690;27.956;2022-09-25T09:20:10;99130.28;;;24.03;40.21
18697;BME280;22617;43.690;27.956;2022-09-25T09:25:25;99127.97;;;24.28;39.46
18697;BME280;22617;43.690;27.956;2022-09-25T09:30:33;99114.50;;;24.31;39.10
18697;BME280;22617;43.690;27.956;2022-09-25T09:35:45;99111.97;;;24.28;40.71
18697;BME280;22617;43.690;27.956;2022-09-25T09:41:02;99112.13;;;24.71;38.88
18697;BME280;22617;43.690;27.956;2022-09-25T09:46:16;99103.91;;;24.30;38.95
18697;BME280;22617;43.690;27.956;2022-09-25T09:51:29;99096.78;;;24.60;41.20
18697;BME280;22617;43.690;27.956;2022-09-25T09:56:35;99104.88;;;24.59;38.95
18697;BME280;22617;43.690;27.956;2022-09-25T10:01:40;99100.28;;;24.91;39.01
18697;BME280;22617;43.690;27.956;2022-09-25T10:06:49;99104.22;;;25.13;38.55
18697;BME280;22617;43.690;27.956;2022-09-25T10:12:00;99094.56;;;25.53;37.50
18697;BME280;22617;43.690;27.956;2022-09-25T10:17:06;99085.94;;;25.07;38.23
18697;BME280;22617;43.690;27.956;2022-09-25T10:22:14;99082.66;;;25.45;39.47
18697;BME280;22617;43.690;27.956;2022-09-25T10:27:24;99081.91;;;25.14;39.93
18697;BME280;22617;43.690;27.956;2022-09-25T10:32:29;99078.31;;;25.01;39.69
18697;BME280;22617;43.690;27.956;2022-09-25T10:37:35;99052.47;;;25.02;39.11
18697;BME280;22617;43.690;27.956;2022-09-25T10:42:40;99043.59;;;25.30;40.53
18697;BME280;22617;43.690;27.956;2022-09-25T10:47:50;99050.41;;;25.07;39.75
18697;BME280;22617;43.690;27.956;2022-09-25T10:53:25;99032.03;;;25.98;40.32
18697;BME280;22617;43.690;27.956;2022-09-25T10:58:37;99026.00;;;26.61;39.84
18697;BME280;22617;43.690;27.956;2022-09-25T11:03:48;99029.91;;;25.22;40.16
18697;BME280;22617;43.690;27.956;2022-09-25T11:09:11;99017.44;;;25.63;38.52
18697;BME280;22617;43.690;27.956;2022-09-25T11:14:20;99023.59;;;26.31;39.25
18697;BME280;22617;43.690;27.956;2022-09-25T11:19:28;99033.44;;;25.77;38.85
18697;BME280;22617;43.690;27.956;2022-09-25T11:24:40;99033.75;;;25.58;39.77
18697;BME280;22617;43.690;27.956;2022-09-25T11:29:55;99022.81;;;25.35;39.14
18697;BME280;22617;43.690;27.956;2022-09-25T11:35:18;99014.47;;;25.53;39.56
18697;BME280;22617;43.690;27.956;2022-09-25T11:40:31;99016.53;;;25.36;39.64
18697;BME280;22617;43.690;27.956;2022-09-25T11:46:01;99007.50;;;25.79;39.89
18697;BME280;22617;43.690;27.956;2022-09-25T11:51:11;99021.94;;;25.48;39.67
18697;BME280;22617;43.690;27.956;2022-09-25T11:56:24;99006.31;;;25.42;39.18
18697;BME280;22617;43.690;27.956;2022-09-25T12:01:40;99009.50;;;25.21;38.81
18697;BME280;22617;43.690;27.956;2022-09-25T12:07:04;99005.47;;;25.28;40.52
18697;BME280;22617;43.690;27.956;2022-09-25T12:12:16;99004.16;;;25.21;42.56
18697;BME280;22617;43.690;27.956;2022-09-25T12:17:33;98995.09;;;25.23;44.10
18697;BME280;22617;43.690;27.956;2022-09-25T12:22:46;98989.56;;;24.41;44.59
18697;BME280;22617;43.690;27.956;2022-09-25T12:27:56;98998.97;;;23.09;45.43
18697;BME280;22617;43.690;27.956;2022-09-25T12:33:12;98990.81;;;23.27;45.27
18697;BME280;22617;43.690;27.956;2022-09-25T12:38:28;98986.00;;;22.87;46.05
18697;BME280;22617;43.690;27.956;2022-09-25T12:43:40;98981.69;;;22.34;46.63
18697;BME280;22617;43.690;27.956;2022-09-25T12:48:49;98980.75;;;22.35;46.38
18697;BME280;22617;43.690;27.956;2022-09-25T12:53:57;98970.88;;;22.72;46.18
18697;BME280;22617;43.690;27.956;2022-09-25T12:59:07;98971.84;;;22.36;45.60
18697;BME280;22617;43.690;27.956;2022-09-25T13:04:29;98951.94;;;22.78;45.33
18697;BME280;22617;43.690;27.956;2022-09-25T13:09:41;98957.50;;;22.73;45.46
18697;BME280;22617;43.690;27.956;2022-09-25T13:14:49;98958.44;;;22.55;45.41
18697;BME280;22617;43.690;27.956;2022-09-25T13:25:41;98954.00;;;22.73;46.24
18697;BME280;22617;43.690;27.956;2022-09-25T13:31:10;98942.34;;;22.58;46.02
18697;BME280;22617;43.690;27.956;2022-09-25T13:36:48;98949.22;;;22.29;46.35
18697;BME280;22617;43.690;27.956;2022-09-25T13:41:55;98945.00;;;22.25;46.17
18697;BME280;22617;43.690;27.956;2022-09-25T13:47:41;98938.63;;;21.59;46.41
18697;BME280;22617;43.690;27.956;2022-09-25T13:53:11;98936.06;;;21.74;46.38
18697;BME280;22617;43.690;27.956;2022-09-25T13:58:23;98943.22;;;21.55;46.54
18697;BME280;22617;43.690;27.956;2022-09-25T14:03:35;98938.72;;;21.57;46.84
18697;BME280;22617;43.690;27.956;2022-09-25T14:08:42;98935.47;;;20.96;48.31
18697;BME280;22617;43.690;27.956;2022-09-25T14:13:47;98942.03;;;21.06;47.31
18697;BME280;22617;43.690;27.956;2022-09-25T14:18:53;98935.41;;;20.79;49.67
18697;BME280;22617;43.690;27.956;2022-09-25T14:24:13;98927.22;;;20.06;51.07
18697;BME280;22617;43.690;27.956;2022-09-25T14:29:23;98934.09;;;19.89;52.85
18697;BME280;22617;43.690;27.956;2022-09-25T14:35:00;98927.81;;;19.92;54.71
18697;BME280;22617;43.690;27.956;2022-09-25T14:40:18;98937.53;;;19.91;55.51
18697;BME280;22617;43.690;27.956;2022-09-25T14:45:53;98928.16;;;20.05;55.29
18697;BME280;22617;43.690;27.956;2022-09-25T14:51:04;98917.44;;;19.87;55.19
18697;BME280;22617;43.690;27.956;2022-09-25T14:56:10;98917.16;;;19.73;56.25
18697;BME280;22617;43.690;27.956;2022-09-25T15:01:22;98919.19;;;19.67;56.30
18697;BME280;22617;43.690;27.956;2022-09-25T15:06:29;98919.84;;;19.51;56.82
18697;BME280;22617;43.690;27.956;2022-09-25T15:11:40;98916.41;;;19.28;57.47
18697;BME280;22617;43.690;27.956;2022-09-25T15:16:44;98917.31;;;19.27;56.99
18697;BME280;22617;43.690;27.956;2022-09-25T15:22:09;98908.69;;;19.00;57.67
18697;BME280;22617;43.690;27.956;2022-09-25T15:27:16;98917.44;;;19.02;58.11
18697;BME280;22617;43.690;27.956;2022-09-25T15:32:22;98910.47;;;18.78;57.94
18697;BME280;22617;43.690;27.956;2022-09-25T15:37:27;98904.81;;;18.40;58.68
18697;BME280;22617;43.690;27.956;2022-09-25T15:42:33;98910.69;;;18.23;58.82
18697;BME280;22617;43.690;27.956;2022-09-25T15:47:49;98905.97;;;18.08;59.42
18697;BME280;22617;43.690;27.956;2022-09-25T15:52:55;98897.81;;;17.91;59.81
18697;BME280;22617;43.690;27.956;2022-09-25T15:58:14;98903.63;;;17.76;60.25
18697;BME280;22617;43.690;27.956;2022-09-25T16:03:20;98894.38;;;17.64;60.68
18697;BME280;22617;43.690;27.956;2022-09-25T16:08:42;98881.72;;;17.48;60.95
18697;BME280;22617;43.690;27.956;2022-09-25T16:13:49;98896.22;;;17.34;61.78
18697;BME280;22617;43.690;27.956;2022-09-25T16:18:53;98901.88;;;17.49;62.00
18697;BME280;22617;43.690;27.956;2022-09-25T16:23:59;98893.59;;;17.34;63.43
18697;BME280;22617;43.690;27.956;2022-09-25T16:29:15;98878.38;;;17.16;64.53
18697;BME280;22617;43.690;27.956;2022-09-25T16:34:24;98889.25;;;17.06;65.42
18697;BME280;22617;43.690;27.956;2022-09-25T16:39:31;98895.69;;;16.97;65.73
18697;BME280;22617;43.690;27.956;2022-09-25T16:44:42;98890.31;;;17.00;66.01
18697;BME280;22617;43.690;27.956;2022-09-25T16:49:48;98882.75;;;16.89;66.29
18697;BME280;22617;43.690;27.956;2022-09-25T16:54:52;98882.84;;;16.86;66.08
18697;BME280;22617;43.690;27.956;2022-09-25T16:59:59;98890.06;;;16.80;66.32
18697;BME280;22617;43.690;27.956;2022-09-25T17:05:06;98903.81;;;16.60;66.68
18697;BME280;22617;43.690;27.956;2022-09-25T17:10:12;98900.41;;;16.56;66.42
18697;BME280;22617;43.690;27.956;2022-09-25T17:15:21;98906.28;;;16.66;65.72
18697;BME280;22617;43.690;27.956;2022-09-25T17:20:26;98900.56;;;16.50;65.86
18697;BME280;22617;43.690;27.956;2022-09-25T17:25:40;98917.34;;;16.46;66.12
18697;BME280;22617;43.690;27.956;2022-09-25T17:30:50;98919.53;;;16.32;66.47
18697;BME280;22617;43.690;27.956;2022-09-25T17:35:57;98904.56;;;16.34;66.57
18697;BME280;22617;43.690;27.956;2022-09-25T17:41:04;98912.84;;;16.21;66.89
18697;BME280;22617;43.690;27.956;2022-09-25T17:46:09;98914.16;;;16.06;66.94
18697;BME280;22617;43.690;27.956;2022-09-25T17:51:17;98911.53;;;16.04;67.60
18697;BME280;22617;43.690;27.956;2022-09-25T17:56:21;98908.06;;;16.04;67.77
18697;BME280;22617;43.690;27.956;2022-09-25T18:01:28;98904.53;;;16.05;67.94
18697;BME280;22617;43.690;27.956;2022-09-25T18:06:39;98903.63;;;16.06;68.35
18697;BME280;22617;43.690;27.956;2022-09-25T18:11:44;98898.63;;;15.97;68.71
18697;BME280;22617;43.690;27.956;2022-09-25T18:16:49;98909.91;;;16.00;69.29
18697;BME280;22617;43.690;27.956;2022-09-25T18:21:52;98912.81;;;15.90;69.63
18697;BME280;22617;43.690;27.956;2022-09-25T18:27:14;98903.03;;;15.96;69.57
18697;BME280;22617;43.690;27.956;2022-09-25T18:32:20;98906.84;;;15.83;70.32
18697;BME280;22617;43.690;27.956;2022-09-25T18:37:25;98900.56;;;15.89;70.56
18697;BME280;22617;43.690;27.956;2022-09-25T18:42:28;98884.06;;;15.84;70.66
18697;BME280;22617;43.690;27.956;2022-09-25T18:47:33;98887.78;;;15.77;71.15
18697;BME280;22617;43.690;27.956;2022-09-25T18:52:37;98900.72;;;15.83;70.92
18697;BME280;22617;43.690;27.956;2022-09-25T18:57:40;98885.69;;;15.57;71.87
18697;BME280;22617;43.690;27.956;2022-09-25T19:02:46;98886.69;;;15.51;72.29
18697;BME280;22617;43.690;27.956;2022-09-25T19:07:49;98883.41;;;15.42;72.46
18697;BME280;22617;43.690;27.956;2022-09-25T19:12:55;98889.44;;;15.45;72.38
18697;BME280;22617;43.690;27.956;2022-09-25T19:18:11;98889.53;;;15.41;72.50
18697;BME280;22617;43.690;27.956;2022-09-25T19:23:15;98907.81;;;15.45;72.69
18697;BME280;22617;43.690;27.956;2022-09-25T19:28:20;98892.78;;;15.53;72.54
18697;BME280;22617;43.690;27.956;2022-09-25T19:33:27;98899.78;;;15.53;72.72
18697;BME280;22617;43.690;27.956;2022-09-25T19:38:32;98898.19;;;15.46;72.40
18697;BME280;22617;43.690;27.956;2022-09-25T19:43:35;98887.56;;;15.50;72.79
18697;BME280;22617;43.690;27.956;2022-09-25T19:48:41;98891.91;;;15.53;73.00
18697;BME280;22617;43.690;27.956;2022-09-25T19:53:47;98893.13;;;15.38;73.71
18697;BME280;22617;43.690;27.956;2022-09-25T19:58:50;98886.00;;;15.43;73.89
18697;BME280;22617;43.690;27.956;2022-09-25T20:03:55;98886.16;;;15.37;74.39
18697;BME280;22617;43.690;27.956;2022-09-25T20:08:59;98883.50;;;15.39;74.46
18697;BME280;22617;43.690;27.956;2022-09-25T20:14:04;98892.44;;;15.30;75.31
18697;BME280;22617;43.690;27.956;2022-09-25T20:19:10;98889.03;;;15.26;75.55
18697;BME280;22617;43.690;27.956;2022-09-25T20:24:13;98886.22;;;15.34;75.81
18697;BME280;22617;43.690;27.956;2022-09-25T20:29:19;98887.91;;;15.37;75.96
18697;BME280;22617;43.690;27.956;2022-09-25T20:34:23;98893.03;;;15.41;76.23
18697;BME280;22617;43.690;27.956;2022-09-25T20:39:27;98893.03;;;15.41;76.23
18697;BME280;22617;43.690;27.956;2022-09-25T20:44:31;98883.75;;;15.28;76.57
18697;BME280;22617;43.690;27.956;2022-09-25T20:49:35;98885.50;;;15.27;76.86
18697;BME280;22617;43.690;27.956;2022-09-25T20:54:40;98886.50;;;15.23;77.08
18697;BME280;22617;43.690;27.956;2022-09-25T20:59:43;98889.97;;;15.24;77.56
18697;BME280;22617;43.690;27.956;2022-09-25T21:04:48;98873.25;;;15.28;77.33
18697;BME280;22617;43.690;27.956;2022-09-25T21:09:54;98876.75;;;15.28;77.62
18697;BME280;22617;43.690;27.956;2022-09-25T21:14:58;98867.25;;;15.23;78.48
18697;BME280;22617;43.690;27.956;2022-09-25T21:20:03;98867.25;;;15.23;78.51
18697;BME280;22617;43.690;27.956;2022-09-25T21:25:08;98868.22;;;15.19;79.07
18697;BME280;22617;43.690;27.956;2022-09-25T21:30:12;98850.53;;;15.25;79.39
18697;BME280;22617;43.690;27.956;2022-09-25T21:35:17;98847.28;;;15.16;79.70
18697;BME280;22617;43.690;27.956;2022-09-25T21:40:21;98847.13;;;15.22;80.19
18697;BME280;22617;43.690;27.956;2022-09-25T21:45:24;98842.88;;;15.18;80.68
18697;BME280;22617;43.690;27.956;2022-09-25T21:50:29;98834.91;;;15.21;81.47
18697;BME280;22617;43.690;27.956;2022-09-25T21:55:32;98830.56;;;15.20;81.68
18697;BME280;22617;43.690;27.956;2022-09-25T22:00:36;98827.94;;;15.20;82.04
18697;BME280;22617;43.690;27.956;2022-09-25T22:05:40;98829.75;;;15.16;82.77
18697;BME280;22617;43.690;27.956;2022-09-25T22:10:53;98816.38;;;15.27;82.95
18697;BME280;22617;43.690;27.956;2022-09-25T22:16:00;98813.84;;;15.24;82.91
18697;BME280;22617;43.690;27.956;2022-09-25T22:21:05;98813.75;;;15.27;82.86
18697;BME280;22617;43.690;27.956;2022-09-25T22:26:09;98816.28;;;15.30;83.80
18697;BME280;22617;43.690;27.956;2022-09-25T22:31:15;98805.84;;;15.28;83.85
18697;BME280;22617;43.690;27.956;2022-09-25T22:36:21;98801.56;;;15.24;83.71
18697;BME280;22617;43.690;27.956;2022-09-25T22:41:24;98803.38;;;15.22;84.15
18697;BME280;22617;43.690;27.956;2022-09-25T22:46:27;98801.56;;;15.24;84.25
18697;BME280;22617;43.690;27.956;2022-09-25T22:51:33;98803.91;;;15.35;83.69
18697;BME280;22617;43.690;27.956;2022-09-25T22:56:36;98794.50;;;15.26;84.03
18697;BME280;22617;43.690;27.956;2022-09-25T23:01:43;98794.63;;;15.22;83.61
18697;BME280;22617;43.690;27.956;2022-09-25T23:06:50;98792.25;;;15.13;83.89
18697;BME280;22617;43.690;27.956;2022-09-25T23:11:55;98788.84;;;15.09;83.93
18697;BME280;22617;43.690;27.956;2022-09-25T23:16:59;98798.81;;;14.95;84.45
18697;BME280;22617;43.690;27.956;2022-09-25T23:22:03;98784.09;;;14.90;85.08
18697;BME280;22617;43.690;27.956;2022-09-25T23:27:08;98784.22;;;14.83;84.86
18697;BME280;22617;43.690;27.956;2022-09-25T23:32:11;98777.09;;;14.89;84.66
18697;BME280;22617;43.690;27.956;2022-09-25T23:37:16;98765.06;;;14.81;85.33
18697;BME280;22617;43.690;27.956;2022-09-25T23:42:20;98762.47;;;14.80;85.23
18697;BME280;22617;43.690;27.956;2022-09-25T23:47:24;98758.88;;;14.82;85.13
18697;BME280;22617;43.690;27.956;2022-09-25T23:52:29;98754.69;;;14.77;85.04
18697;BME280;22617;43.690;27.956;2022-09-25T23:57:34;98754.84;;;14.69;84.47
